createdAt,value
2023-03-25T00:00:37.141Z,88.53
2023-03-25T00:01:37.167Z,88.62
2023-03-25T00:02:37.245Z,89.01
2023-03-25T00:03:37.233Z,88.62
2023-03-25T00:04:37.276Z,89.01
2023-03-25T00:05:37.583Z,88.53
2023-03-25T00:06:37.349Z,89.01
2023-03-25T00:07:37.343Z,89.01
2023-03-25T00:08:37.370Z,88.71
2023-03-25T00:09:37.398Z,88.91
2023-03-25T00:10:37.438Z,89.15
2023-03-25T00:11:37.757Z,88.81
2023-03-25T00:12:37.506Z,88.71
2023-03-25T00:13:37.619Z,88.62
2023-03-25T00:14:37.543Z,88.71
2023-03-25T00:15:37.592Z,89.01
2023-03-25T00:16:37.627Z,89.01
2023-03-25T00:17:37.981Z,89.01
2023-03-25T00:20:37.724Z,89.06
2023-03-25T00:21:37.747Z,88.91
2023-03-25T00:22:37.782Z,88.91
2023-03-25T00:23:38.107Z,88.81
2023-03-25T00:24:37.834Z,88.43
2023-03-25T00:25:37.868Z,88.77
2023-03-25T00:26:37.897Z,88.71
2023-03-25T00:27:37.929Z,88.67
2023-03-25T00:28:37.953Z,88.71
2023-03-25T00:29:38.002Z,88.77
2023-03-25T00:30:38.424Z,88.53
2023-03-25T00:31:38.039Z,88.39
2023-03-25T00:33:38.095Z,88.53
2023-03-25T00:34:38.125Z,88.33
2023-03-25T00:35:38.172Z,89.20
2023-03-25T00:36:38.190Z,88.91
2023-03-25T00:37:38.513Z,88.91
2023-03-25T00:38:38.269Z,88.91
2023-03-25T00:39:38.277Z,88.71
2023-03-25T00:40:38.300Z,88.71
2023-03-25T00:41:38.332Z,88.67
2023-03-25T00:42:38.363Z,88.91
2023-03-25T00:43:38.392Z,88.91
2023-03-25T00:44:38.764Z,88.91
2023-03-25T00:46:38.588Z,88.43
2023-03-25T00:47:38.521Z,88.71
2023-03-25T00:49:38.567Z,88.87
2023-03-25T00:50:38.636Z,88.71
2023-03-25T00:51:52.804Z,88.53
2023-03-25T00:52:38.650Z,88.62
2023-03-25T00:53:38.678Z,88.62
2023-03-25T00:54:38.709Z,88.62
2023-03-25T00:55:38.741Z,88.67
2023-03-25T00:56:38.810Z,87.66
2023-03-25T00:57:38.798Z,88.14
2023-03-25T00:58:39.130Z,88.14
2023-03-25T00:59:38.857Z,88.10
2023-03-25T01:00:38.884Z,87.56
2023-03-25T01:01:38.973Z,87.13
2023-03-25T01:02:39.080Z,88.10
2023-03-25T01:03:39.040Z,87.90
2023-03-25T01:04:41.442Z,87.52
2023-03-25T01:05:39.327Z,87.13
2023-03-25T01:06:39.062Z,87.52
2023-03-25T01:07:39.167Z,87.71
2023-03-25T01:08:39.133Z,87.76
2023-03-25T01:10:39.184Z,88.10
2023-03-25T01:11:39.219Z,87.08
2023-03-25T01:12:39.533Z,87.42
2023-03-25T01:13:39.262Z,87.95
2023-03-25T01:14:39.293Z,87.90
2023-03-25T01:15:39.336Z,88.19
2023-03-25T01:16:39.354Z,88.33
2023-03-25T01:17:39.478Z,88.24
2023-03-25T01:18:39.427Z,87.95
2023-03-25T01:19:39.744Z,88.29
2023-03-25T01:20:39.464Z,88.10
2023-03-25T01:21:39.493Z,88.71
2023-03-25T01:22:39.528Z,88.87
2023-03-25T01:23:39.553Z,88.43
2023-03-25T01:24:39.585Z,88.00
2023-03-25T01:25:39.609Z,88.04
2023-03-25T01:26:39.940Z,88.04
2023-03-25T01:27:39.667Z,88.10
2023-03-25T01:28:39.699Z,87.76
2023-03-25T01:29:39.728Z,87.76
2023-03-25T01:30:39.769Z,88.39
2023-03-25T01:31:39.841Z,88.87
2023-03-25T01:32:39.895Z,88.33
2023-03-25T01:33:40.143Z,88.57
2023-03-25T01:34:39.895Z,88.29
2023-03-25T01:35:39.914Z,88.57
2023-03-25T01:36:39.963Z,88.10
2023-03-25T01:37:39.965Z,88.29
2023-03-25T01:38:40.005Z,88.87
2023-03-25T01:39:40.043Z,88.48
2023-03-25T01:40:40.346Z,88.29
2023-03-25T01:41:49.711Z,87.81
2023-03-25T01:42:40.114Z,87.90
2023-03-25T01:43:40.139Z,88.10
2023-03-25T01:44:40.164Z,88.39
2023-03-25T01:45:40.195Z,88.00
2023-03-25T01:46:40.273Z,87.33
2023-03-25T01:47:40.598Z,88.14
2023-03-25T01:48:40.281Z,87.81
2023-03-25T01:49:40.312Z,88.53
2023-03-25T01:50:40.391Z,88.57
2023-03-25T01:51:40.374Z,88.57
2023-03-25T01:52:40.403Z,88.57
2023-03-25T01:54:40.765Z,88.67
2023-03-25T01:55:40.495Z,88.81
2023-03-25T01:56:40.600Z,89.01
2023-03-25T01:57:40.567Z,88.77
2023-03-25T01:58:40.597Z,89.01
2023-03-25T01:59:40.649Z,88.87
2023-03-25T02:00:40.690Z,88.71
2023-03-25T02:01:40.959Z,88.96
2023-03-25T02:02:40.706Z,89.15
2023-03-25T02:03:40.775Z,88.96
2023-03-25T02:06:40.825Z,88.39
2023-03-25T02:08:41.163Z,88.87
2023-03-25T02:09:40.895Z,88.87
2023-03-25T02:10:40.929Z,88.77
2023-03-25T02:11:41.072Z,89.44
2023-03-25T02:12:41.046Z,89.54
2023-03-25T02:13:41.017Z,89.06
2023-03-25T02:15:41.385Z,88.87
2023-03-25T02:16:41.150Z,89.06
2023-03-25T02:17:41.163Z,88.96
2023-03-25T02:18:41.152Z,89.35
2023-03-25T02:20:41.208Z,89.44
2023-03-25T02:21:41.546Z,89.64
2023-03-25T02:22:41.294Z,89.64
2023-03-25T02:23:41.297Z,88.96
2023-03-25T02:25:41.359Z,89.44
2023-03-25T02:26:41.388Z,88.96
2023-03-25T02:27:41.727Z,88.77
2023-03-25T02:28:41.441Z,88.77
2023-03-25T02:30:41.517Z,89.15
2023-03-25T02:31:41.609Z,89.64
2023-03-25T02:32:41.634Z,89.35
2023-03-25T02:33:41.885Z,89.92
2023-03-25T02:34:41.626Z,90.02
2023-03-25T02:35:41.704Z,89.83
2023-03-25T02:36:41.686Z,89.64
2023-03-25T02:37:41.709Z,89.83
2023-03-25T02:38:41.767Z,89.92
2023-03-25T02:40:42.125Z,89.35
2023-03-25T02:41:41.858Z,88.87
2023-03-25T02:42:41.850Z,88.87
2023-03-25T02:43:41.988Z,89.35
2023-03-25T02:44:41.920Z,88.48
2023-03-25T02:45:42.025Z,88.77
2023-03-25T02:46:41.966Z,89.35
2023-03-25T02:47:42.355Z,89.25
2023-03-25T02:48:42.027Z,89.35
2023-03-25T02:49:42.052Z,89.54
2023-03-25T02:50:42.088Z,89.54
2023-03-25T02:51:42.111Z,89.06
2023-03-25T02:52:42.138Z,88.29
2023-03-25T02:53:42.173Z,88.67
2023-03-25T02:54:42.522Z,88.00
2023-03-25T02:55:42.226Z,88.39
2023-03-25T02:56:42.290Z,88.67
2023-03-25T02:57:42.287Z,88.67
2023-03-25T02:59:42.349Z,88.10
2023-03-25T03:00:42.382Z,88.67
2023-03-25T03:01:42.756Z,88.57
2023-03-25T03:02:42.503Z,88.48
2023-03-25T03:03:42.460Z,88.77
2023-03-25T03:04:42.491Z,89.44
2023-03-25T03:05:42.516Z,89.25
2023-03-25T03:07:42.587Z,89.25
2023-03-25T03:08:42.906Z,89.25
2023-03-25T03:09:42.632Z,88.67
2023-03-25T03:10:42.689Z,88.67
2023-03-25T03:11:42.691Z,89.25
2023-03-25T03:12:42.722Z,89.25
2023-03-25T03:13:42.758Z,89.64
2023-03-25T03:14:42.776Z,89.06
2023-03-25T03:15:43.113Z,89.06
2023-03-25T03:16:42.879Z,89.15
2023-03-25T03:17:42.927Z,89.35
2023-03-25T03:18:42.939Z,88.77
2023-03-25T03:19:42.947Z,88.77
2023-03-25T03:20:42.962Z,88.77
2023-03-25T03:21:42.986Z,88.00
2023-03-25T03:22:43.309Z,87.33
2023-03-25T03:23:43.039Z,88.10
2023-03-25T03:24:43.066Z,88.77
2023-03-25T03:25:43.099Z,88.77
2023-03-25T03:26:43.170Z,88.67
2023-03-25T03:27:43.162Z,87.81
2023-03-25T03:28:43.184Z,88.39
2023-03-25T03:29:43.520Z,89.06
2023-03-25T03:30:43.247Z,88.67
2023-03-25T03:31:48.362Z,88.00
2023-03-25T03:32:43.400Z,86.94
2023-03-25T03:33:43.329Z,87.33
2023-03-25T03:34:43.361Z,87.42
2023-03-25T03:37:43.766Z,87.90
2023-03-25T03:38:43.477Z,88.48
2023-03-25T03:39:43.516Z,88.87
2023-03-25T03:40:43.532Z,88.96
2023-03-25T03:41:43.570Z,89.06
2023-03-25T03:42:43.616Z,89.35
2023-03-25T03:43:43.622Z,89.54
2023-03-25T03:44:43.946Z,89.15
2023-03-25T03:45:43.677Z,88.87
2023-03-25T03:46:43.753Z,88.29
2023-03-25T03:47:43.764Z,88.87
2023-03-25T03:48:43.769Z,89.06
2023-03-25T03:49:43.797Z,88.96
2023-03-25T03:50:43.826Z,88.77
2023-03-25T03:51:44.252Z,88.96
2023-03-25T03:52:43.878Z,88.67
2023-03-25T03:53:43.911Z,88.77
2023-03-25T03:54:43.955Z,89.15
2023-03-25T03:55:43.970Z,89.64
2023-03-25T03:56:44.044Z,88.67
2023-03-25T03:57:44.024Z,88.67
2023-03-25T03:58:44.370Z,89.15
2023-03-25T03:59:44.085Z,89.44
2023-03-25T04:00:44.124Z,88.96
2023-03-25T04:01:44.174Z,88.10
2023-03-25T04:03:44.399Z,89.06
2023-03-25T04:04:44.225Z,89.35
2023-03-25T04:05:44.557Z,89.25
2023-03-25T04:06:44.283Z,88.48
2023-03-25T04:07:44.322Z,89.25
2023-03-25T04:08:44.342Z,89.54
2023-03-25T04:09:44.368Z,89.35
2023-03-25T04:10:44.411Z,89.44
2023-03-25T04:11:44.429Z,90.12
2023-03-25T04:12:44.765Z,89.35
2023-03-25T04:13:44.508Z,89.64
2023-03-25T04:14:44.565Z,90.12
2023-03-25T04:15:44.589Z,89.92
2023-03-25T04:16:44.588Z,89.92
2023-03-25T04:17:44.670Z,89.44
2023-03-25T04:18:44.638Z,88.96
2023-03-25T04:19:44.961Z,88.57
2023-03-25T04:20:44.707Z,89.35
2023-03-25T04:21:44.723Z,88.96
2023-03-25T04:22:44.743Z,89.64
2023-03-25T04:23:44.772Z,88.57
2023-03-25T04:24:44.823Z,88.96
2023-03-25T04:25:45.135Z,89.35
2023-03-25T04:26:44.866Z,88.87
2023-03-25T04:27:44.894Z,89.64
2023-03-25T04:28:44.914Z,89.35
2023-03-25T04:29:44.957Z,89.25
2023-03-25T04:30:45.007Z,89.73
2023-03-25T04:31:45.324Z,89.35
2023-03-25T04:32:45.101Z,89.25
2023-03-25T04:33:45.062Z,89.92
2023-03-25T04:34:45.091Z,89.83
2023-03-25T04:35:45.149Z,89.64
2023-03-25T04:36:45.155Z,89.35
2023-03-25T04:37:45.501Z,90.12
2023-03-25T04:38:45.209Z,89.35
2023-03-25T04:39:45.235Z,89.06
2023-03-25T04:40:45.325Z,89.73
2023-03-25T04:41:45.296Z,88.67
2023-03-25T04:42:45.323Z,88.77
2023-03-25T04:43:45.369Z,89.64
2023-03-25T04:44:45.693Z,89.83
2023-03-25T04:45:45.461Z,89.83
2023-03-25T04:46:45.457Z,89.54
2023-03-25T04:47:45.552Z,89.73
2023-03-25T04:48:45.536Z,89.73
2023-03-25T04:49:45.532Z,90.21
2023-03-25T04:51:45.884Z,89.73
2023-03-25T04:52:45.612Z,89.44
2023-03-25T04:53:45.644Z,89.54
2023-03-25T04:54:45.683Z,89.35
2023-03-25T04:55:45.705Z,89.92
2023-03-25T04:56:45.745Z,89.73
2023-03-25T04:57:45.756Z,89.92
2023-03-25T04:58:46.099Z,88.87
2023-03-25T04:59:45.820Z,89.44
2023-03-25T05:00:45.848Z,89.35
2023-03-25T05:01:46.057Z,89.44
2023-03-25T05:02:45.998Z,89.35
2023-03-25T05:03:45.933Z,90.12
2023-03-25T05:04:45.983Z,89.92
2023-03-25T05:05:46.288Z,89.25
2023-03-25T05:06:46.022Z,89.64
2023-03-25T05:07:46.042Z,89.35
2023-03-25T05:08:46.070Z,89.54
2023-03-25T05:09:46.095Z,88.96
2023-03-25T05:10:46.131Z,88.57
2023-03-25T05:11:46.164Z,89.15
2023-03-25T05:12:46.488Z,89.25
2023-03-25T05:13:46.213Z,89.15
2023-03-25T05:14:46.249Z,89.35
2023-03-25T05:15:46.274Z,88.96
2023-03-25T05:16:46.392Z,88.39
2023-03-25T05:17:46.380Z,88.96
2023-03-25T05:18:46.384Z,88.67
2023-03-25T05:19:46.687Z,88.67
2023-03-25T05:20:46.415Z,88.87
2023-03-25T05:21:46.479Z,88.67
2023-03-25T05:22:46.488Z,89.35
2023-03-25T05:23:46.500Z,89.35
2023-03-25T05:24:46.529Z,88.87
2023-03-25T05:25:46.565Z,88.87
2023-03-25T05:26:46.891Z,89.64
2023-03-25T05:27:46.640Z,89.64
2023-03-25T05:29:46.677Z,88.39
2023-03-25T05:30:46.744Z,88.77
2023-03-25T05:31:46.783Z,88.57
2023-03-25T05:32:46.821Z,88.96
2023-03-25T05:33:47.094Z,88.96
2023-03-25T05:34:46.854Z,87.90
2023-03-25T05:35:46.870Z,88.10
2023-03-25T05:36:46.924Z,88.87
2023-03-25T05:37:46.913Z,88.67
2023-03-25T05:38:46.937Z,88.10
2023-03-25T05:39:46.964Z,88.57
2023-03-25T05:40:47.287Z,88.48
2023-03-25T05:41:47.023Z,88.96
2023-03-25T05:42:47.278Z,88.57
2023-03-25T05:43:47.080Z,87.62
2023-03-25T05:44:47.109Z,88.67
2023-03-25T05:45:47.199Z,88.29
2023-03-25T05:46:47.176Z,87.33
2023-03-25T05:47:47.538Z,87.52
2023-03-25T05:48:47.239Z,88.77
2023-03-25T05:49:47.258Z,88.67
2023-03-25T05:50:47.315Z,88.19
2023-03-25T05:51:47.313Z,87.81
2023-03-25T05:52:47.334Z,88.19
2023-03-25T05:53:47.363Z,87.52
2023-03-25T05:54:47.700Z,88.19
2023-03-25T05:55:47.507Z,89.35
2023-03-25T05:56:47.499Z,88.87
2023-03-25T05:57:47.483Z,87.81
2023-03-25T05:58:47.511Z,86.94
2023-03-25T06:00:47.567Z,87.33
2023-03-25T06:01:47.897Z,88.10
2023-03-25T06:02:47.790Z,87.71
2023-03-25T06:03:47.749Z,87.04
2023-03-25T06:04:47.693Z,86.65
2023-03-25T06:05:47.873Z,86.46
2023-03-25T06:06:47.773Z,87.62
2023-03-25T06:07:47.790Z,87.33
2023-03-25T06:08:48.101Z,87.52
2023-03-25T06:09:47.941Z,87.52
2023-03-25T06:10:47.877Z,86.94
2023-03-25T06:11:47.887Z,86.65
2023-03-25T06:12:47.924Z,86.18
2023-03-25T06:13:47.943Z,86.85
2023-03-25T06:14:48.018Z,87.33
2023-03-25T06:15:48.632Z,87.81
2023-03-25T06:16:48.027Z,87.90
2023-03-25T06:17:48.089Z,87.52
2023-03-25T06:18:48.089Z,86.46
2023-03-25T06:19:48.126Z,87.09
2023-03-25T06:21:48.475Z,87.09
2023-03-25T06:22:48.228Z,87.13
2023-03-25T06:23:48.233Z,87.71
2023-03-25T06:24:48.258Z,87.62
2023-03-25T06:25:48.458Z,87.71
2023-03-25T06:26:48.317Z,87.52
2023-03-25T06:27:48.664Z,87.04
2023-03-25T06:28:48.375Z,86.80
2023-03-25T06:29:48.413Z,87.13
2023-03-25T06:30:48.437Z,87.23
2023-03-25T06:31:48.467Z,87.67
2023-03-25T06:32:48.503Z,88.00
2023-03-25T06:33:48.830Z,87.52
2023-03-25T06:34:48.551Z,87.38
2023-03-25T06:35:49.072Z,86.61
2023-03-25T06:36:48.604Z,86.94
2023-03-25T06:37:48.659Z,87.13
2023-03-25T06:38:48.685Z,86.75
2023-03-25T06:39:48.694Z,86.94
2023-03-25T06:40:49.036Z,86.56
2023-03-25T06:41:48.747Z,86.56
2023-03-25T06:42:48.780Z,88.15
2023-03-25T06:43:48.815Z,87.42
2023-03-25T06:44:48.840Z,87.42
2023-03-25T06:45:49.008Z,87.04
2023-03-25T06:46:48.889Z,86.56
2023-03-25T06:47:49.233Z,87.71
2023-03-25T06:48:48.996Z,87.67
2023-03-25T06:49:48.985Z,86.99
2023-03-25T06:50:49.038Z,87.52
2023-03-25T06:51:49.040Z,87.09
2023-03-25T06:52:49.073Z,86.90
2023-03-25T06:53:49.147Z,86.99
2023-03-25T06:54:49.451Z,88.19
2023-03-25T06:55:49.481Z,88.63
2023-03-25T06:56:49.247Z,87.57
2023-03-25T06:57:49.210Z,87.52
2023-03-25T06:58:49.238Z,86.42
2023-03-25T06:59:49.265Z,86.52
2023-03-25T07:01:49.677Z,85.94
2023-03-25T07:02:49.421Z,85.55
2023-03-25T07:03:49.376Z,85.94
2023-03-25T07:04:49.433Z,84.92
2023-03-25T07:05:49.739Z,86.13
2023-03-25T07:06:49.470Z,85.78
2023-03-25T07:07:49.503Z,85.36
2023-03-25T07:08:49.824Z,86.32
2023-03-25T07:09:49.550Z,86.71
2023-03-25T07:10:49.607Z,86.42
2023-03-25T07:11:49.621Z,86.08
2023-03-25T07:12:49.658Z,86.42
2023-03-25T07:13:49.679Z,85.11
2023-03-25T07:14:49.695Z,84.98
2023-03-25T07:15:50.328Z,85.21
2023-03-25T07:16:49.757Z,85.02
2023-03-25T07:17:49.900Z,86.85
2023-03-25T07:18:49.810Z,86.56
2023-03-25T07:19:49.845Z,86.32
2023-03-25T07:20:49.871Z,85.07
2023-03-25T07:21:49.899Z,85.98
2023-03-25T07:22:50.227Z,86.56
2023-03-25T07:23:49.962Z,85.11
2023-03-25T07:24:49.982Z,85.78
2023-03-25T07:25:50.266Z,86.36
2023-03-25T07:26:50.064Z,86.08
2023-03-25T07:27:50.088Z,85.69
2023-03-25T07:28:50.106Z,86.94
2023-03-25T07:29:50.441Z,85.88
2023-03-25T07:30:50.153Z,87.04
2023-03-25T07:31:50.241Z,87.90
2023-03-25T07:32:50.266Z,86.36
2023-03-25T07:33:50.251Z,85.02
2023-03-25T07:34:50.285Z,86.18
2023-03-25T07:35:50.665Z,85.31
2023-03-25T07:36:50.627Z,86.27
2023-03-25T07:37:50.357Z,85.21
2023-03-25T07:38:50.398Z,85.11
2023-03-25T07:40:50.582Z,84.73
2023-03-25T07:41:50.473Z,84.54
2023-03-25T07:42:50.588Z,84.44
2023-03-25T07:43:50.839Z,83.73
2023-03-25T07:44:50.569Z,83.96
2023-03-25T07:46:50.614Z,84.88
2023-03-25T07:47:50.706Z,85.36
2023-03-25T07:48:50.673Z,84.83
2023-03-25T07:49:50.697Z,84.34
2023-03-25T07:50:51.031Z,84.92
2023-03-25T07:51:50.757Z,85.36
2023-03-25T07:52:50.789Z,85.11
2023-03-25T07:53:50.825Z,85.36
2023-03-25T07:54:50.851Z,85.78
2023-03-25T07:55:51.157Z,85.46
2023-03-25T07:56:50.943Z,85.46
2023-03-25T07:58:50.982Z,84.54
2023-03-25T07:59:50.984Z,84.98
2023-03-25T08:00:51.016Z,84.50
2023-03-25T08:01:51.104Z,84.98
2023-03-25T08:02:51.131Z,84.40
2023-03-25T08:03:51.142Z,84.21
2023-03-25T08:04:51.128Z,85.17
2023-03-25T08:05:51.359Z,85.46
2023-03-25T08:06:51.189Z,84.88
2023-03-25T08:08:51.245Z,85.17
2023-03-25T08:09:51.276Z,84.59
2023-03-25T08:10:51.602Z,84.78
2023-03-25T08:11:51.356Z,85.17
2023-03-25T08:12:51.357Z,84.69
2023-03-25T08:13:51.481Z,84.21
2023-03-25T08:14:51.432Z,84.11
2023-03-25T08:15:51.671Z,84.11
2023-03-25T08:16:51.851Z,85.27
2023-03-25T08:17:51.546Z,85.55
2023-03-25T08:18:51.531Z,85.17
2023-03-25T08:20:51.594Z,84.30
2023-03-25T08:21:51.618Z,84.98
2023-03-25T08:22:51.939Z,85.17
2023-03-25T08:23:51.672Z,85.46
2023-03-25T08:24:51.695Z,84.40
2023-03-25T08:25:51.967Z,85.36
2023-03-25T08:27:51.792Z,85.11
2023-03-25T08:28:51.852Z,85.36
2023-03-25T08:29:52.144Z,83.73
2023-03-25T08:30:51.886Z,84.59
2023-03-25T08:31:51.915Z,85.27
2023-03-25T08:32:52.060Z,84.11
2023-03-25T08:33:51.953Z,85.27
2023-03-25T08:34:51.982Z,84.54
2023-03-25T08:35:52.193Z,84.40
2023-03-25T08:36:52.333Z,85.07
2023-03-25T08:37:52.168Z,84.98
2023-03-25T08:38:52.112Z,84.30
2023-03-25T08:39:52.122Z,84.54
2023-03-25T08:40:52.147Z,84.30
2023-03-25T08:41:52.181Z,84.44
2023-03-25T08:42:52.210Z,83.73
2023-03-25T08:43:52.554Z,83.39
2023-03-25T08:44:52.261Z,83.39
2023-03-25T08:45:52.589Z,83.34
2023-03-25T08:46:52.348Z,83.06
2023-03-25T08:47:52.397Z,83.39
2023-03-25T08:48:52.413Z,83.63
2023-03-25T08:49:52.426Z,82.96
2023-03-25T08:50:52.735Z,82.86
2023-03-25T08:51:52.474Z,82.09
2023-03-25T08:52:52.509Z,82.29
2023-03-25T08:53:52.565Z,81.46
2023-03-25T08:54:52.570Z,82.96
2023-03-25T08:55:52.906Z,83.06
2023-03-25T08:56:52.631Z,82.09
2023-03-25T08:57:52.960Z,82.81
2023-03-25T08:58:52.674Z,82.29
2023-03-25T08:59:52.693Z,81.90
2023-03-25T09:00:52.733Z,82.57
2023-03-25T09:01:55.356Z,82.19
2023-03-25T09:02:52.834Z,82.67
2023-03-25T09:04:53.152Z,81.81
2023-03-25T09:05:53.282Z,84.01
2023-03-25T09:07:11.430Z,84.40
2023-03-25T09:07:52.939Z,82.09
2023-03-25T09:08:52.960Z,82.67
2023-03-25T09:09:52.978Z,82.86
2023-03-25T09:10:53.019Z,82.57
2023-03-25T09:11:53.345Z,83.25
2023-03-25T09:12:53.066Z,82.67
2023-03-25T09:13:53.093Z,82.76
2023-03-25T09:14:53.127Z,83.06
2023-03-25T09:15:53.420Z,82.09
2023-03-25T09:16:53.181Z,82.32
2023-03-25T09:17:53.230Z,82.19
2023-03-25T09:18:53.606Z,83.15
2023-03-25T09:19:54.511Z,82.96
2023-03-25T09:20:53.297Z,82.71
2023-03-25T09:21:53.328Z,83.44
2023-03-25T09:22:53.354Z,83.63
2023-03-25T09:23:53.376Z,82.19
2023-03-25T09:24:53.402Z,81.07
2023-03-25T09:25:53.733Z,81.17
2023-03-25T09:26:53.477Z,81.71
2023-03-25T09:27:53.496Z,81.75
2023-03-25T09:28:53.520Z,81.46
2023-03-25T09:29:53.552Z,81.37
2023-03-25T09:30:53.614Z,82.04
2023-03-25T09:31:53.603Z,82.57
2023-03-25T09:32:53.957Z,81.81
2023-03-25T09:33:53.662Z,82.14
2023-03-25T09:34:53.920Z,82.42
2023-03-25T09:35:53.986Z,81.52
2023-03-25T09:36:53.746Z,82.09
2023-03-25T09:37:53.770Z,81.90
2023-03-25T09:38:53.801Z,82.61
2023-03-25T09:39:54.144Z,81.46
2023-03-25T09:40:53.859Z,81.84
2023-03-25T09:41:53.884Z,82.23
2023-03-25T09:42:53.920Z,81.65
2023-03-25T09:43:53.950Z,81.07
2023-03-25T09:44:53.972Z,81.46
2023-03-25T09:45:54.000Z,81.84
2023-03-25T09:46:54.525Z,81.94
2023-03-25T09:47:54.106Z,81.94
2023-03-25T09:48:54.093Z,81.56
2023-03-25T09:49:54.120Z,82.14
2023-03-25T09:50:54.164Z,82.42
2023-03-25T09:51:54.180Z,82.81
2023-03-25T09:52:54.222Z,82.81
2023-03-25T09:53:54.528Z,82.42
2023-03-25T09:54:54.276Z,81.56
2023-03-25T09:55:54.332Z,81.46
2023-03-25T09:56:54.344Z,80.69
2023-03-25T09:57:54.342Z,81.75
2023-03-25T09:58:54.427Z,81.17
2023-03-25T09:59:54.425Z,81.17
2023-03-25T10:00:54.774Z,81.07
2023-03-25T10:01:54.525Z,80.88
2023-03-25T10:03:54.520Z,80.60
2023-03-25T10:04:54.554Z,80.79
2023-03-25T10:05:54.579Z,81.07
2023-03-25T10:07:55.060Z,81.17
2023-03-25T10:09:54.693Z,80.79
2023-03-25T10:10:54.724Z,80.21
2023-03-25T10:11:54.757Z,80.30
2023-03-25T10:12:54.797Z,80.60
2023-03-25T10:13:55.106Z,80.11
2023-03-25T10:14:54.832Z,79.82
2023-03-25T10:15:54.901Z,81.07
2023-03-25T10:17:55.035Z,80.88
2023-03-25T10:18:54.948Z,80.50
2023-03-25T10:19:55.278Z,80.98
2023-03-25T10:20:55.909Z,80.98
2023-03-25T10:21:55.034Z,82.71
2023-03-25T10:22:55.062Z,81.65
2023-03-25T10:23:55.111Z,81.46
2023-03-25T10:24:55.120Z,81.46
2023-03-25T10:25:55.446Z,81.65
2023-03-25T10:26:55.177Z,80.88
2023-03-25T10:27:55.205Z,81.27
2023-03-25T10:28:55.240Z,80.98
2023-03-25T10:29:55.267Z,80.98
2023-03-25T10:30:55.290Z,81.17
2023-03-25T10:31:55.361Z,81.46
2023-03-25T10:32:55.660Z,80.79
2023-03-25T10:33:55.385Z,81.56
2023-03-25T10:34:55.402Z,81.46
2023-03-25T10:35:55.489Z,81.46
2023-03-25T10:38:55.840Z,81.56
2023-03-25T10:39:55.640Z,82.52
2023-03-25T10:40:55.578Z,82.04
2023-03-25T10:41:55.612Z,81.65
2023-03-25T10:42:55.650Z,81.27
2023-03-25T10:43:55.779Z,81.46
2023-03-25T10:44:55.690Z,81.27
2023-03-25T10:45:56.101Z,80.79
2023-03-25T10:46:55.856Z,80.79
2023-03-25T10:47:55.797Z,81.75
2023-03-25T10:48:55.807Z,80.79
2023-03-25T10:49:55.837Z,80.79
2023-03-25T10:50:55.862Z,80.79
2023-03-25T10:51:55.894Z,80.79
2023-03-25T10:52:56.220Z,80.88
2023-03-25T10:53:55.957Z,79.82
2023-03-25T10:54:56.020Z,80.60
2023-03-25T10:55:56.034Z,80.88
2023-03-25T10:56:56.083Z,80.02
2023-03-25T10:57:56.061Z,80.30
2023-03-25T10:58:56.094Z,80.79
2023-03-25T10:59:56.425Z,80.30
2023-03-25T11:00:56.216Z,80.25
2023-03-25T11:01:56.229Z,80.30
2023-03-25T11:02:56.353Z,80.11
2023-03-25T11:03:56.237Z,80.21
2023-03-25T11:04:56.270Z,79.73
2023-03-25T11:05:56.297Z,80.11
2023-03-25T11:06:56.723Z,79.82
2023-03-25T11:07:56.358Z,81.07
2023-03-25T11:08:56.376Z,81.17
2023-03-25T11:09:56.412Z,80.73
2023-03-25T11:10:56.436Z,79.82
2023-03-25T11:11:56.495Z,80.11
2023-03-25T11:12:56.499Z,79.38
2023-03-25T11:13:56.832Z,79.44
2023-03-25T11:15:56.596Z,78.77
2023-03-25T11:16:56.664Z,79.05
2023-03-25T11:17:56.663Z,79.58
2023-03-25T11:18:56.668Z,80.88
2023-03-25T11:19:56.705Z,79.82
2023-03-25T11:20:57.042Z,79.35
2023-03-25T11:21:56.755Z,79.86
2023-03-25T11:22:56.777Z,79.67
2023-03-25T11:23:56.823Z,80.44
2023-03-25T11:24:56.847Z,80.35
2023-03-25T11:25:56.871Z,79.48
2023-03-25T11:26:56.895Z,79.28
2023-03-25T11:27:57.315Z,79.28
2023-03-25T11:28:56.997Z,78.90
2023-03-25T11:29:56.982Z,80.06
2023-03-25T11:32:57.089Z,79.86
2023-03-25T11:33:57.400Z,78.52
2023-03-25T11:34:57.180Z,77.84
2023-03-25T11:35:57.181Z,77.08
2023-03-25T11:36:57.182Z,78.42
2023-03-25T11:37:57.216Z,79.10
2023-03-25T11:38:57.239Z,78.33
2023-03-25T11:39:57.568Z,78.23
2023-03-25T11:40:57.373Z,79.19
2023-03-25T11:41:57.450Z,79.67
2023-03-25T11:42:57.356Z,79.05
2023-03-25T11:43:57.408Z,79.58
2023-03-25T11:44:57.430Z,79.25
2023-03-25T11:45:57.497Z,79.00
2023-03-25T11:46:57.474Z,79.05
2023-03-25T11:47:57.542Z,79.35
2023-03-25T11:48:57.580Z,79.38
2023-03-25T11:49:57.563Z,79.44
2023-03-25T11:50:57.584Z,78.96
2023-03-25T11:51:57.929Z,79.35
2023-03-25T11:52:57.643Z,79.00
2023-03-25T11:53:57.673Z,79.19
2023-03-25T11:54:57.702Z,80.25
2023-03-25T11:55:57.753Z,79.67
2023-03-25T11:56:57.783Z,79.38
2023-03-25T11:57:57.859Z,78.81
2023-03-25T11:59:58.169Z,78.61
2023-03-25T12:00:57.876Z,78.13
2023-03-25T12:01:57.905Z,78.33
2023-03-25T12:02:57.986Z,78.52
2023-03-25T12:03:58.120Z,78.71
2023-03-25T12:04:58.003Z,78.90
2023-03-25T12:05:58.068Z,78.71
2023-03-25T12:06:58.363Z,78.71
2023-03-25T12:09:58.140Z,78.23
2023-03-25T12:10:58.197Z,78.71
2023-03-25T12:11:58.197Z,78.33
2023-03-25T12:12:58.229Z,78.23
2023-03-25T12:13:58.558Z,77.94
2023-03-25T12:14:58.283Z,77.65
2023-03-25T12:15:58.348Z,79.00
2023-03-25T12:16:58.341Z,78.81
2023-03-25T12:17:58.384Z,78.23
2023-03-25T12:18:58.399Z,78.58
2023-03-25T12:19:58.433Z,79.44
2023-03-25T12:20:58.774Z,79.63
2023-03-25T12:21:58.491Z,79.05
2023-03-25T12:22:58.522Z,78.77
2023-03-25T12:23:58.544Z,79.38
2023-03-25T12:24:58.590Z,78.86
2023-03-25T12:25:58.601Z,80.02
2023-03-25T12:26:58.637Z,80.11
2023-03-25T12:27:59.263Z,78.77
2023-03-25T12:28:58.686Z,79.58
2023-03-25T12:29:58.724Z,79.44
2023-03-25T12:30:58.746Z,80.06
2023-03-25T12:31:59.496Z,78.33
2023-03-25T12:34:01.125Z,78.33
2023-03-25T12:34:59.867Z,78.03
2023-03-25T12:35:59.701Z,78.42
2023-03-25T12:36:58.921Z,77.75
2023-03-25T12:37:58.949Z,77.26
2023-03-25T12:38:59.008Z,78.13
2023-03-25T12:39:59.008Z,77.65
2023-03-25T12:40:59.334Z,78.03
2023-03-25T12:42:59.105Z,78.23
2023-03-25T12:43:59.136Z,77.94
2023-03-25T12:44:59.154Z,78.42
2023-03-25T12:45:59.283Z,77.94
2023-03-25T12:46:59.216Z,77.84
2023-03-25T12:47:59.735Z,77.08
2023-03-25T12:48:59.270Z,76.88
2023-03-25T12:49:59.294Z,77.17
2023-03-25T12:51:59.359Z,77.75
2023-03-25T12:52:59.380Z,77.75
2023-03-25T12:53:59.714Z,76.98
2023-03-25T12:54:59.446Z,77.08
2023-03-25T12:55:59.477Z,76.31
2023-03-25T12:56:59.568Z,77.08
2023-03-25T12:57:59.840Z,76.11
2023-03-25T12:58:59.555Z,76.59
2023-03-25T12:59:59.902Z,76.59
2023-03-25T13:00:59.628Z,76.98
2023-03-25T13:02:59.740Z,76.50
2023-03-25T13:03:59.729Z,76.88
2023-03-25T13:04:59.746Z,76.40
2023-03-25T13:06:00.120Z,76.40
2023-03-25T13:06:59.789Z,76.98
2023-03-25T13:07:59.826Z,76.69
2023-03-25T13:08:59.850Z,77.17
2023-03-25T13:09:59.884Z,76.78
2023-03-25T13:10:59.902Z,75.92
2023-03-25T13:12:00.038Z,77.46
2023-03-25T13:13:00.341Z,77.26
2023-03-25T13:13:59.993Z,77.04
2023-03-25T13:15:00.017Z,77.71
2023-03-25T13:16:00.106Z,77.51
2023-03-25T13:17:00.141Z,77.71
2023-03-25T13:18:00.164Z,78.23
2023-03-25T13:19:00.137Z,78.38
2023-03-25T13:20:00.493Z,78.77
2023-03-25T13:21:00.191Z,78.38
2023-03-25T13:22:00.217Z,78.38
2023-03-25T13:23:00.254Z,77.90
2023-03-25T13:24:00.296Z,78.09
2023-03-25T13:25:00.315Z,79.25
2023-03-25T13:26:00.347Z,79.44
2023-03-25T13:27:00.761Z,79.35
2023-03-25T13:28:00.399Z,79.53
2023-03-25T13:29:00.428Z,78.58
2023-03-25T13:30:00.474Z,78.48
2023-03-25T13:31:00.504Z,79.35
2023-03-25T13:32:00.571Z,79.63
2023-03-25T13:33:00.558Z,80.40
2023-03-25T13:34:00.883Z,81.27
2023-03-25T13:35:00.613Z,80.40
2023-03-25T13:36:00.682Z,81.27
2023-03-25T13:37:00.964Z,80.69
2023-03-25T13:38:00.678Z,81.17
2023-03-25T13:39:00.725Z,81.46
2023-03-25T13:40:00.748Z,81.37
2023-03-25T13:41:01.065Z,81.56